Seaspan Chiwan — VRBH3 — position and weather

sailwx.info

Track history (hours):
 
Tides and Currents Weather Stations Pressure Air Temp Water Temp Dewpoint Dewpoint Depression Visibility Wind Speed Wind Dir Waves Ship Positions

Seaspan Chiwan

Last reported at 2016-Jul-24 23:34 UTC. Time now 2016-Jul-25 00:16 UTC.
Position N 47°57' W 125°25'.

Length 260 m; draft 8.8 m.

Type: Cargo ship. MMSI: 477014500.

Date/timePositionNaut miles runAvg speedWind from/ knotsBaromVisibWave heightAir tempDewpointWater temp
2016-Jul-24 23:34N 47°57' W 125°25'1111.3
2016-Jul-24 22:33N 48°08' W 125°19'1110.7
2016-Jul-24 21:34N 48°18' W 125°12'1211.5
2016-Jul-24 20:33N 48°28' W 125°04'1110.8
2016-Jul-24 19:34N 48°31' W 124°49'1212.5
2016-Jul-24 18:34N 48°27' W 124°31'1212.4
2016-Jul-24 17:33N 48°22' W 124°13'1212.4
2016-Jul-24 16:33N 48°18' W 123°56'1212.1
2016-Jul-24 15:32N 48°16' W 123°38'9 9.1
2016-Jul-24 14:33N 48°20' W 123°26'1010.0
2016-Jul-24 13:33N 48°25' W 123°13'1818.1
2016-Jul-24 12:33N 48°43' W 123°12'1211.8
2016-Jul-24 11:33N 48°54' W 123°09'1313.2
2016-Jul-24 10:33N 49°07' W 123°17'1212.3
2016-Jul-24 09:33N 49°09' W 122°59'3 3.3
2016-Jul-24 08:33N 49°11' W 122°55'0 0.0
2016-Jul-24 07:33N 49°11' W 122°55'0 0.0
2016-Jul-24 06:32N 49°11' W 122°55'0 0.0
2016-Jul-24 05:29N 49°11' W 122°55'0 0.0
2016-Jul-24 04:32N 49°11' W 122°55'0 0.0
2016-Jul-24 03:32N 49°11' W 122°55'0 0.0
2016-Jul-24 02:29N 49°11' W 122°55'0 0.0
2016-Jul-24 01:31N 49°11' W 122°55'0 0.0
2016-Jul-24 00:32N 49°11' W 122°55'0 0.0
2016-Jul-23 23:32N 49°11' W 122°55'0 0.0
2016-Jul-23 22:32N 49°11' W 122°55'0 0.0
2016-Jul-23 21:32N 49°11' W 122°55'0 0.0
2016-Jul-23 20:31N 49°11' W 122°55'0 0.0
2016-Jul-23 19:31N 49°11' W 122°55'0 0.0
2016-Jul-23 18:33N 49°11' W 122°55'0 0.0
2016-Jul-23 17:33N 49°11' W 122°55'0 0.0
2016-Jul-23 16:33N 49°11' W 122°55'0 0.0
2016-Jul-23 15:33N 49°11' W 122°55'0 0.0
2016-Jul-23 14:33N 49°11' W 122°55'0 0.0
2016-Jul-23 13:33N 49°11' W 122°55'0 0.0
2016-Jul-23 12:34N 49°11' W 122°55'0 0.0
2016-Jul-23 11:32N 49°11' W 122°55'0 0.0
2016-Jul-23 10:32N 49°11' W 122°55'0 0.0
2016-Jul-23 09:32N 49°11' W 122°55'0 0.0
2016-Jul-23 08:32N 49°11' W 122°55'0 0.0
2016-Jul-23 07:32N 49°11' W 122°55'0 0.0
2016-Jul-23 06:29N 49°11' W 122°55'0 0.0
2016-Jul-23 04:24N 49°11' W 122°55'0 0.0
2016-Jul-23 03:32N 49°11' W 122°55'0 0.0
2016-Jul-23 02:32N 49°11' W 122°55'0 0.0
2016-Jul-23 01:32N 49°11' W 122°55'0 0.0
2016-Jul-23 00:29N 49°11' W 122°55'2 2.4
2016-Jul-22 23:33N 49°09' W 122°57'9 9.3
2016-Jul-22 22:33N 49°07' W 123°10'7 6.6
2016-Jul-22 21:33N 49°03' W 123°18'1717.4
2016-Jul-22 20:34N 48°50' W 123°00'1515.0
2016-Jul-22 19:34N 48°38' W 123°14'1414.4
2016-Jul-22 18:34N 48°23' W 123°14'5 5.4
2016-Jul-22 17:33N 48°21' W 123°22'1 0.6
2016-Jul-22 16:29N 48°21' W 123°21'0 0.0
2016-Jul-22 15:31N 48°21' W 123°21'0 0.3
2016-Jul-22 14:31N 48°21' W 123°21'0 0.1
2016-Jul-22 13:31N 48°21' W 123°21'0 0.0
2016-Jul-22 12:32N 48°21' W 123°21'0 0.0
2016-Jul-22 11:32N 48°21' W 123°21'0 0.0
2016-Jul-22 10:32N 48°21' W 123°21'0 0.2
2016-Jul-22 09:32N 48°21' W 123°21'0 0.1
2016-Jul-22 08:29N 48°21' W 123°21'0 0.0
2016-Jul-22 05:33N 48°21' W 123°21'5 5.0
2016-Jul-22 04:34N 48°17' W 123°25'10 9.6
2016-Jul-22 03:32N 48°11' W 123°13'1717.5
2016-Jul-22 02:34N 48°11' W 122°48'1616.4
2016-Jul-22 01:33N 47°58' W 122°34'1716.6
2016-Jul-22 00:34N 47°41' W 122°28'8 7.5
2016-Jul-21 23:31N 47°35' W 122°21'0 0.0
2016-Jul-21 22:33N 47°35' W 122°21'0 0.0
2016-Jul-21 21:34N 47°35' W 122°21'0 0.0
2016-Jul-21 20:34N 47°35' W 122°21'0 0.0
2016-Jul-21 19:33N 47°35' W 122°21'0 0.0
2016-Jul-21 18:33N 47°35' W 122°21'0 0.0
2016-Jul-21 17:34N 47°35' W 122°21'0 0.0
2016-Jul-21 16:34N 47°35' W 122°21'0 0.0
2016-Jul-21 15:34N 47°35' W 122°21'0 0.0
2016-Jul-21 14:33N 47°35' W 122°21'0 0.0
2016-Jul-21 13:33N 47°35' W 122°21'0 0.0
2016-Jul-21 12:33N 47°35' W 122°21'0 0.0
2016-Jul-21 11:33N 47°35' W 122°21'0 0.0
2016-Jul-21 10:33N 47°35' W 122°21'0 0.0
2016-Jul-21 09:33N 47°35' W 122°21'0 0.0
2016-Jul-21 08:33N 47°35' W 122°21'0 0.0
2016-Jul-21 07:33N 47°35' W 122°21'0 0.0
2016-Jul-21 06:33N 47°35' W 122°21'0 0.0
2016-Jul-21 05:33N 47°35' W 122°21'0 0.0
2016-Jul-21 04:33N 47°35' W 122°21'0 0.0
2016-Jul-21 03:33N 47°35' W 122°21'0 0.0
2016-Jul-21 02:33N 47°35' W 122°21'0 0.0
2016-Jul-21 01:33N 47°35' W 122°21'0 0.0
2016-Jul-21 00:33N 47°35' W 122°21'0 0.0
2016-Jul-20 23:33N 47°35' W 122°21'0 0.0
2016-Jul-20 22:33N 47°35' W 122°21'2 2.4
2016-Jul-20 21:34N 47°37' W 122°23'1414.1
2016-Jul-20 20:33N 47°51' W 122°28'1818.3
2016-Jul-20 19:33N 48°07' W 122°41'1818.2
2016-Jul-20 18:33N 48°12' W 123°07'1413.5
2016-Jul-20 17:33N 48°11' W 123°27'9 9.2
2016-Jul-20 16:33N 48°13' W 123°40'1212.0
2016-Jul-20 15:32N 48°14' W 123°59'1212.2
2016-Jul-20 14:33N 48°19' W 124°15'1212.2
2016-Jul-20 13:33N 48°25' W 124°32'1212.0
2016-Jul-20 12:34N 48°29' W 124°49'1010.4
2016-Jul-20 11:33N 48°24' W 125°03'1413.8
2016-Jul-20 10:33N 48°12' W 125°13'1513.5
2016-Jul-20 09:27N 47°58' W 125°20'4613.5
2016-Jul-20 06:04N 47°13' W 125°16'713.7
2016-Jul-20 05:33N 47°06' W 125°14'1313.5
2016-Jul-20 04:34N 46°52' W 125°11'1413.6
2016-Jul-20 03:34N 46°39' W 125°08'1212.5
2016-Jul-20 02:33N 46°27' W 125°06'1212.2
2016-Jul-20 01:33N 46°15' W 125°03'1414.4
2016-Jul-20 00:33N 46°00' W 125°00'1414.4
2016-Jul-19 23:34N 45°46' W 124°60'1414.4
2016-Jul-19 22:34N 45°32' W 124°60'1514.6
2016-Jul-19 21:34N 45°17' W 124°60'1814.7
2016-Jul-19 20:19N 44°59' W 124°60'1215.5
2016-Jul-19 19:34N 44°47' W 124°60'8215.1
2016-Jul-19 14:09N 43°25' W 125°01'1214.8
2016-Jul-19 13:19N 43°13' W 125°00'27314.5
2016-Jul-18 18:32N 38°45' W 123°48'1515.0
2016-Jul-18 17:33N 38°33' W 123°39'1515.1
2016-Jul-18 16:33N 38°20' W 123°29'1515.1
2016-Jul-18 15:33N 38°07' W 123°18'1514.8
2016-Jul-18 14:33N 37°57' W 123°05'1514.9
2016-Jul-18 13:33N 37°49' W 122°48'1212.0
2016-Jul-18 12:33N 37°47' W 122°33'1111.1
2016-Jul-18 11:34N 37°48' W 122°19'0 0.0
2016-Jul-18 10:31N 37°48' W 122°19'0 0.0
2016-Jul-18 09:31N 37°48' W 122°19'0 0.0
2016-Jul-18 08:31N 37°48' W 122°19'0 0.0
2016-Jul-18 07:31N 37°48' W 122°19'0 0.0
2016-Jul-18 06:31N 37°48' W 122°19'0 0.0
2016-Jul-18 05:31N 37°48' W 122°19'0 0.0
2016-Jul-18 04:31N 37°48' W 122°19'0 0.0
2016-Jul-18 03:31N 37°48' W 122°19'0 0.0
2016-Jul-18 02:31N 37°48' W 122°19'0 0.0
2016-Jul-18 01:30N 37°48' W 122°19'0 0.0
2016-Jul-18 00:33N 37°48' W 122°19'0 0.0
2016-Jul-17 23:32N 37°48' W 122°19'0 0.0
2016-Jul-17 22:34N 37°48' W 122°19'0 0.5
2016-Jul-17 21:33N 37°48' W 122°20'1312.6
2016-Jul-17 20:34N 37°47' W 122°36'8 7.6
2016-Jul-17 19:34N 37°40' W 122°40'1010.5
2016-Jul-17 18:34N 37°29' W 122°39'1211.9
2016-Jul-17 17:34N 37°17' W 122°39'1212.0
2016-Jul-17 16:34N 37°05' W 122°38'1212.1
2016-Jul-17 15:33N 36°54' W 122°32'1211.8
2016-Jul-17 14:34N 36°43' W 122°28'1211.6
2016-Jul-17 13:33N 36°32' W 122°22'1211.8
2016-Jul-17 12:33N 36°22' W 122°15'1212.2
2016-Jul-17 11:33N 36°11' W 122°08'1211.9
2016-Jul-17 10:33N 36°01' W 122°00'1212.0
2016-Jul-17 09:33N 35°50' W 121°53'1211.9
2016-Jul-17 08:33N 35°40' W 121°46'1111.4
2016-Jul-17 07:33N 35°30' W 121°39'1211.8
2016-Jul-17 06:33N 35°20' W 121°32'2411.8
2016-Jul-17 04:29N 34°58' W 121°17'1112.0
2016-Jul-17 03:33N 34°49' W 121°11'1211.5
2016-Jul-17 02:33N 34°39' W 121°04'1211.5
2016-Jul-17 01:32N 34°28' W 120°57'1411.2
2016-Jul-17 00:19N 34°24' W 120°41'911.4
2016-Jul-16 23:32N 34°22' W 120°31'1111.5
2016-Jul-16 22:33N 34°18' W 120°18'1111.4
2016-Jul-16 21:33N 34°16' W 120°04'1211.5
2016-Jul-16 20:32N 34°13' W 119°50'1111.7
2016-Jul-16 19:33N 34°10' W 119°37'1211.6
2016-Jul-16 18:34N 34°06' W 119°24'1111.5
2016-Jul-16 17:33N 34°02' W 119°11'1211.7
2016-Jul-16 16:33N 33°57' W 118°59'1211.6
2016-Jul-16 15:34N 33°51' W 118°47'1211.7
2016-Jul-16 14:34N 33°45' W 118°34'1111.3
2016-Jul-16 13:34N 33°40' W 118°22'7 6.6
2016-Jul-16 12:33N 33°43' W 118°15'1 1.0
2016-Jul-16 11:33N 33°44' W 118°15'0 0.0
2016-Jul-16 10:26N 33°44' W 118°15'0 0.0
2016-Jul-16 09:26N 33°44' W 118°15'0 0.0
2016-Jul-16 08:32N 33°44' W 118°15'0 0.0
2016-Jul-16 06:32N 33°44' W 118°15'0 0.0
2016-Jul-16 04:32N 33°44' W 118°15'0 0.0
2016-Jul-16 03:20N 33°44' W 118°15'0 0.0
2016-Jul-16 02:32N 33°44' W 118°15'0 0.0
2016-Jul-16 01:26N 33°44' W 118°15'0 0.0
2016-Jul-16 00:32N 33°44' W 118°15'0 0.0
2016-Jul-15 23:32N 33°44' W 118°15'0 0.0
2016-Jul-15 22:32N 33°44' W 118°15'0 0.0
2016-Jul-15 21:32N 33°44' W 118°15'0 0.0
2016-Jul-15 20:26N 33°44' W 118°15'0 0.0
2016-Jul-15 19:26N 33°44' W 118°15'0 0.0
2016-Jul-15 18:28N 33°44' W 118°15'0 0.0
2016-Jul-15 17:28N 33°44' W 118°15'0 0.0
2016-Jul-15 16:28N 33°44' W 118°15'0 0.0
2016-Jul-15 15:33N 33°44' W 118°15'2 2.4
2016-Jul-15 14:33N 33°42' W 118°14'9 9.4
2016-Jul-15 13:33N 33°33' W 118°09'1211.6
2016-Jul-15 12:33N 33°23' W 118°04'1211.6
2016-Jul-15 11:33N 33°11' W 117°59'1212.2
2016-Jul-15 10:33N 33°00' W 117°55'1414.5
2016-Jul-15 09:33N 32°47' W 117°48'1414.0
2016-Jul-15 08:33N 32°33' W 117°44'1414.3
2016-Jul-15 07:33N 32°19' W 117°39'1414.0
2016-Jul-15 06:33N 32°06' W 117°35'1414.0
2016-Jul-15 05:33N 31°52' W 117°31'1313.3
2016-Jul-15 04:33N 31°39' W 117°27'1312.6
2016-Jul-15 03:33N 31°27' W 117°24'1 0.7
2016-Jul-15 02:34N 31°27' W 117°23'1 0.9
2016-Jul-15 01:33N 31°27' W 117°24'1 1.1
2016-Jul-15 00:29N 31°27' W 117°23'  
Track history (hours):
 
Tides and Currents Weather Stations Pressure Air Temp Water Temp Dewpoint Dewpoint Depression Visibility Wind Speed Wind Dir Waves Ship Positions

Seaspan Chiwan

Last reported at 2016-Jul-24 23:34 UTC. Time now 2016-Jul-25 00:16 UTC.
Position N 47°57' W 125°25'.

Length 260 m; draft 8.8 m.

Type: Cargo ship. MMSI: 477014500.

Date/timePositionNaut miles runAvg speedWind from/ knotsBaromVisibWave heightAir tempDewpointWater temp
2016-Jul-24 23:34N 47°57' W 125°25'1111.3
2016-Jul-24 22:33N 48°08' W 125°19'1110.7
2016-Jul-24 21:34N 48°18' W 125°12'1211.5
2016-Jul-24 20:33N 48°28' W 125°04'1110.8
2016-Jul-24 19:34N 48°31' W 124°49'1212.5
2016-Jul-24 18:34N 48°27' W 124°31'1212.4
2016-Jul-24 17:33N 48°22' W 124°13'1212.4
2016-Jul-24 16:33N 48°18' W 123°56'1212.1
2016-Jul-24 15:32N 48°16' W 123°38'9 9.1
2016-Jul-24 14:33N 48°20' W 123°26'1010.0
2016-Jul-24 13:33N 48°25' W 123°13'1818.1
2016-Jul-24 12:33N 48°43' W 123°12'1211.8
2016-Jul-24 11:33N 48°54' W 123°09'1313.2
2016-Jul-24 10:33N 49°07' W 123°17'1212.3
2016-Jul-24 09:33N 49°09' W 122°59'3 3.3
2016-Jul-24 08:33N 49°11' W 122°55'0 0.0
2016-Jul-24 07:33N 49°11' W 122°55'0 0.0
2016-Jul-24 06:32N 49°11' W 122°55'0 0.0
2016-Jul-24 05:29N 49°11' W 122°55'0 0.0
2016-Jul-24 04:32N 49°11' W 122°55'0 0.0
2016-Jul-24 03:32N 49°11' W 122°55'0 0.0
2016-Jul-24 02:29N 49°11' W 122°55'0 0.0
2016-Jul-24 01:31N 49°11' W 122°55'0 0.0
2016-Jul-24 00:32N 49°11' W 122°55'0 0.0
2016-Jul-23 23:32N 49°11' W 122°55'0 0.0
2016-Jul-23 22:32N 49°11' W 122°55'0 0.0
2016-Jul-23 21:32N 49°11' W 122°55'0 0.0
2016-Jul-23 20:31N 49°11' W 122°55'0 0.0
2016-Jul-23 19:31N 49°11' W 122°55'0 0.0
2016-Jul-23 18:33N 49°11' W 122°55'0 0.0
2016-Jul-23 17:33N 49°11' W 122°55'0 0.0
2016-Jul-23 16:33N 49°11' W 122°55'0 0.0
2016-Jul-23 15:33N 49°11' W 122°55'0 0.0
2016-Jul-23 14:33N 49°11' W 122°55'0 0.0
2016-Jul-23 13:33N 49°11' W 122°55'0 0.0
2016-Jul-23 12:34N 49°11' W 122°55'0 0.0
2016-Jul-23 11:32N 49°11' W 122°55'0 0.0
2016-Jul-23 10:32N 49°11' W 122°55'0 0.0
2016-Jul-23 09:32N 49°11' W 122°55'0 0.0
2016-Jul-23 08:32N 49°11' W 122°55'0 0.0
2016-Jul-23 07:32N 49°11' W 122°55'0 0.0
2016-Jul-23 06:29N 49°11' W 122°55'0 0.0
2016-Jul-23 04:24N 49°11' W 122°55'0 0.0
2016-Jul-23 03:32N 49°11' W 122°55'0 0.0
2016-Jul-23 02:32N 49°11' W 122°55'0 0.0
2016-Jul-23 01:32N 49°11' W 122°55'0 0.0
2016-Jul-23 00:29N 49°11' W 122°55'2 2.4
2016-Jul-22 23:33N 49°09' W 122°57'9 9.3
2016-Jul-22 22:33N 49°07' W 123°10'7 6.6
2016-Jul-22 21:33N 49°03' W 123°18'1717.4
2016-Jul-22 20:34N 48°50' W 123°00'1515.0
2016-Jul-22 19:34N 48°38' W 123°14'1414.4
2016-Jul-22 18:34N 48°23' W 123°14'5 5.4
2016-Jul-22 17:33N 48°21' W 123°22'1 0.6
2016-Jul-22 16:29N 48°21' W 123°21'0 0.0
2016-Jul-22 15:31N 48°21' W 123°21'0 0.3
2016-Jul-22 14:31N 48°21' W 123°21'0 0.1
2016-Jul-22 13:31N 48°21' W 123°21'0 0.0
2016-Jul-22 12:32N 48°21' W 123°21'0 0.0
2016-Jul-22 11:32N 48°21' W 123°21'0 0.0
2016-Jul-22 10:32N 48°21' W 123°21'0 0.2
2016-Jul-22 09:32N 48°21' W 123°21'0 0.1
2016-Jul-22 08:29N 48°21' W 123°21'0 0.0
2016-Jul-22 05:33N 48°21' W 123°21'5 5.0
2016-Jul-22 04:34N 48°17' W 123°25'10 9.6
2016-Jul-22 03:32N 48°11' W 123°13'1717.5
2016-Jul-22 02:34N 48°11' W 122°48'1616.4
2016-Jul-22 01:33N 47°58' W 122°34'1716.6
2016-Jul-22 00:34N 47°41' W 122°28'8 7.5
2016-Jul-21 23:31N 47°35' W 122°21'0 0.0
2016-Jul-21 22:33N 47°35' W 122°21'0 0.0
2016-Jul-21 21:34N 47°35' W 122°21'0 0.0
2016-Jul-21 20:34N 47°35' W 122°21'0 0.0
2016-Jul-21 19:33N 47°35' W 122°21'0 0.0
2016-Jul-21 18:33N 47°35' W 122°21'0 0.0
2016-Jul-21 17:34N 47°35' W 122°21'0 0.0
2016-Jul-21 16:34N 47°35' W 122°21'0 0.0
2016-Jul-21 15:34N 47°35' W 122°21'0 0.0
2016-Jul-21 14:33N 47°35' W 122°21'0 0.0
2016-Jul-21 13:33N 47°35' W 122°21'0 0.0
2016-Jul-21 12:33N 47°35' W 122°21'0 0.0
2016-Jul-21 11:33N 47°35' W 122°21'0 0.0
2016-Jul-21 10:33N 47°35' W 122°21'0 0.0
2016-Jul-21 09:33N 47°35' W 122°21'0 0.0
2016-Jul-21 08:33N 47°35' W 122°21'0 0.0
2016-Jul-21 07:33N 47°35' W 122°21'0 0.0
2016-Jul-21 06:33N 47°35' W 122°21'0 0.0
2016-Jul-21 05:33N 47°35' W 122°21'0 0.0
2016-Jul-21 04:33N 47°35' W 122°21'0 0.0
2016-Jul-21 03:33N 47°35' W 122°21'0 0.0
2016-Jul-21 02:33N 47°35' W 122°21'0 0.0
2016-Jul-21 01:33N 47°35' W 122°21'0 0.0
2016-Jul-21 00:33N 47°35' W 122°21'0 0.0
2016-Jul-20 23:33N 47°35' W 122°21'0 0.0
2016-Jul-20 22:33N 47°35' W 122°21'2 2.4
2016-Jul-20 21:34N 47°37' W 122°23'1414.1
2016-Jul-20 20:33N 47°51' W 122°28'1818.3
2016-Jul-20 19:33N 48°07' W 122°41'1818.2
2016-Jul-20 18:33N 48°12' W 123°07'1413.5
2016-Jul-20 17:33N 48°11' W 123°27'9 9.2
2016-Jul-20 16:33N 48°13' W 123°40'1212.0
2016-Jul-20 15:32N 48°14' W 123°59'1212.2
2016-Jul-20 14:33N 48°19' W 124°15'1212.2
2016-Jul-20 13:33N 48°25' W 124°32'1212.0
2016-Jul-20 12:34N 48°29' W 124°49'1010.4
2016-Jul-20 11:33N 48°24' W 125°03'1413.8
2016-Jul-20 10:33N 48°12' W 125°13'1513.5
2016-Jul-20 09:27N 47°58' W 125°20'4613.5
2016-Jul-20 06:04N 47°13' W 125°16'713.7
2016-Jul-20 05:33N 47°06' W 125°14'1313.5
2016-Jul-20 04:34N 46°52' W 125°11'1413.6
2016-Jul-20 03:34N 46°39' W 125°08'1212.5
2016-Jul-20 02:33N 46°27' W 125°06'1212.2
2016-Jul-20 01:33N 46°15' W 125°03'1414.4
2016-Jul-20 00:33N 46°00' W 125°00'1414.4
2016-Jul-19 23:34N 45°46' W 124°60'1414.4
2016-Jul-19 22:34N 45°32' W 124°60'1514.6
2016-Jul-19 21:34N 45°17' W 124°60'1814.7
2016-Jul-19 20:19N 44°59' W 124°60'1215.5
2016-Jul-19 19:34N 44°47' W 124°60'8215.1
2016-Jul-19 14:09N 43°25' W 125°01'1214.8
2016-Jul-19 13:19N 43°13' W 125°00'27314.5
2016-Jul-18 18:32N 38°45' W 123°48'1515.0
2016-Jul-18 17:33N 38°33' W 123°39'1515.1
2016-Jul-18 16:33N 38°20' W 123°29'1515.1
2016-Jul-18 15:33N 38°07' W 123°18'1514.8
2016-Jul-18 14:33N 37°57' W 123°05'1514.9
2016-Jul-18 13:33N 37°49' W 122°48'1212.0
2016-Jul-18 12:33N 37°47' W 122°33'1111.1
2016-Jul-18 11:34N 37°48' W 122°19'0 0.0
2016-Jul-18 10:31N 37°48' W 122°19'0 0.0
2016-Jul-18 09:31N 37°48' W 122°19'0 0.0
2016-Jul-18 08:31N 37°48' W 122°19'0 0.0
2016-Jul-18 07:31N 37°48' W 122°19'0 0.0
2016-Jul-18 06:31N 37°48' W 122°19'0 0.0
2016-Jul-18 05:31N 37°48' W 122°19'0 0.0
2016-Jul-18 04:31N 37°48' W 122°19'0 0.0
2016-Jul-18 03:31N 37°48' W 122°19'0 0.0
2016-Jul-18 02:31N 37°48' W 122°19'0 0.0
2016-Jul-18 01:30N 37°48' W 122°19'0 0.0
2016-Jul-18 00:33N 37°48' W 122°19'0 0.0
2016-Jul-17 23:32N 37°48' W 122°19'0 0.0
2016-Jul-17 22:34N 37°48' W 122°19'0 0.5
2016-Jul-17 21:33N 37°48' W 122°20'1312.6
2016-Jul-17 20:34N 37°47' W 122°36'8 7.6
2016-Jul-17 19:34N 37°40' W 122°40'1010.5
2016-Jul-17 18:34N 37°29' W 122°39'1211.9
2016-Jul-17 17:34N 37°17' W 122°39'1212.0
2016-Jul-17 16:34N 37°05' W 122°38'1212.1
2016-Jul-17 15:33N 36°54' W 122°32'1211.8
2016-Jul-17 14:34N 36°43' W 122°28'1211.6
2016-Jul-17 13:33N 36°32' W 122°22'1211.8
2016-Jul-17 12:33N 36°22' W 122°15'1212.2
2016-Jul-17 11:33N 36°11' W 122°08'1211.9
2016-Jul-17 10:33N 36°01' W 122°00'1212.0
2016-Jul-17 09:33N 35°50' W 121°53'1211.9
2016-Jul-17 08:33N 35°40' W 121°46'1111.4
2016-Jul-17 07:33N 35°30' W 121°39'1211.8
2016-Jul-17 06:33N 35°20' W 121°32'2411.8
2016-Jul-17 04:29N 34°58' W 121°17'1112.0
2016-Jul-17 03:33N 34°49' W 121°11'1211.5
2016-Jul-17 02:33N 34°39' W 121°04'1211.5
2016-Jul-17 01:32N 34°28' W 120°57'1411.2
2016-Jul-17 00:19N 34°24' W 120°41'911.4
2016-Jul-16 23:32N 34°22' W 120°31'1111.5
2016-Jul-16 22:33N 34°18' W 120°18'1111.4
2016-Jul-16 21:33N 34°16' W 120°04'1211.5
2016-Jul-16 20:32N 34°13' W 119°50'1111.7
2016-Jul-16 19:33N 34°10' W 119°37'1211.6
2016-Jul-16 18:34N 34°06' W 119°24'1111.5
2016-Jul-16 17:33N 34°02' W 119°11'1211.7
2016-Jul-16 16:33N 33°57' W 118°59'1211.6
2016-Jul-16 15:34N 33°51' W 118°47'1211.7
2016-Jul-16 14:34N 33°45' W 118°34'1111.3
2016-Jul-16 13:34N 33°40' W 118°22'7 6.6
2016-Jul-16 12:33N 33°43' W 118°15'1 1.0
2016-Jul-16 11:33N 33°44' W 118°15'0 0.0
2016-Jul-16 10:26N 33°44' W 118°15'0 0.0
2016-Jul-16 09:26N 33°44' W 118°15'0 0.0
2016-Jul-16 08:32N 33°44' W 118°15'0 0.0
2016-Jul-16 06:32N 33°44' W 118°15'0 0.0
2016-Jul-16 04:32N 33°44' W 118°15'0 0.0
2016-Jul-16 03:20N 33°44' W 118°15'0 0.0
2016-Jul-16 02:32N 33°44' W 118°15'0 0.0
2016-Jul-16 01:26N 33°44' W 118°15'0 0.0
2016-Jul-16 00:32N 33°44' W 118°15'0 0.0
2016-Jul-15 23:32N 33°44' W 118°15'0 0.0
2016-Jul-15 22:32N 33°44' W 118°15'0 0.0
2016-Jul-15 21:32N 33°44' W 118°15'0 0.0
2016-Jul-15 20:26N 33°44' W 118°15'0 0.0
2016-Jul-15 19:26N 33°44' W 118°15'0 0.0
2016-Jul-15 18:28N 33°44' W 118°15'0 0.0
2016-Jul-15 17:28N 33°44' W 118°15'0 0.0
2016-Jul-15 16:28N 33°44' W 118°15'0 0.0
2016-Jul-15 15:33N 33°44' W 118°15'2 2.4
2016-Jul-15 14:33N 33°42' W 118°14'9 9.4
2016-Jul-15 13:33N 33°33' W 118°09'1211.6
2016-Jul-15 12:33N 33°23' W 118°04'1211.6
2016-Jul-15 11:33N 33°11' W 117°59'1212.2
2016-Jul-15 10:33N 33°00' W 117°55'1414.5
2016-Jul-15 09:33N 32°47' W 117°48'1414.0
2016-Jul-15 08:33N 32°33' W 117°44'1414.3
2016-Jul-15 07:33N 32°19' W 117°39'1414.0
2016-Jul-15 06:33N 32°06' W 117°35'1414.0
2016-Jul-15 05:33N 31°52' W 117°31'1313.3
2016-Jul-15 04:33N 31°39' W 117°27'1312.6
2016-Jul-15 03:33N 31°27' W 117°24'1 0.7
2016-Jul-15 02:34N 31°27' W 117°23'1 0.9
2016-Jul-15 01:33N 31°27' W 117°24'1 1.1
2016-Jul-15 00:29N 31°27' W 117°23'  

Dump ship's entire track history